Time;durP1;ratioP1;P1;durP2;ratioP2;P2;SDS_P1;SDS_P2;PMS_P1;PMS_P2;Temp;Humidity;BMP_temperature;BMP_pressure;BME280_temperature;BME280_humidity;BME280_pressure;Samples;Min_cycle;Max_cycle;Signal;HPM_P1;HPM_P2
2022/01/28 00:01:06;;;;;;;17.83;3.00;;;5.20;99.90;;;;;;6185383;23;20024;-75
2022/01/28 00:03:37;;;;;;;15.52;2.72;;;5.20;99.90;;;;;;6186138;23;20342;-75
2022/01/28 00:06:05;;;;;;;14.57;3.35;;;5.20;99.90;;;;;;6185889;23;20392;-75
2022/01/28 00:08:31;;;;;;;13.18;2.80;;;5.20;99.90;;;;;;6185315;23;20013;-75
2022/01/28 00:10:57;;;;;;;16.27;2.60;;;5.10;99.90;;;;;;6185607;23;20473;-75
2022/01/28 00:13:42;;;;;;;18.13;2.97;;;5.10;99.90;;;;;;6186218;23;20442;-75
2022/01/28 00:17:10;;;;;;;18.98;4.15;;;5.10;99.90;;;;;;6185166;23;20021;-75
2022/01/28 00:19:38;;;;;;;28.02;3.47;;;5.20;99.90;;;;;;6181163;23;20025;-75
2022/01/28 00:38:33;;;;;;;19.30;3.20;;;5.30;99.90;;;;;;6161403;23;20096;-75
2022/01/28 00:40:59;;;;;;;24.30;5.13;;;5.30;99.90;;;;;;6188181;23;20348;-75
2022/01/28 00:43:25;;;;;;;27.15;4.72;;;5.20;99.90;;;;;;6186603;23;20095;-75
2022/01/28 00:45:50;;;;;;;19.08;3.92;;;5.30;99.90;;;;;;6187701;23;20103;-75
2022/01/28 00:48:16;;;;;;;18.77;3.35;;;5.20;99.90;;;;;;6187918;23;20021;-75
2022/01/28 00:50:42;;;;;;;20.60;3.45;;;5.20;99.90;;;;;;6186581;23;20071;-75
2022/01/28 00:53:09;;;;;;;22.75;3.97;;;5.20;99.90;;;;;;6161045;23;20072;-75
2022/01/28 00:55:35;;;;;;;22.80;3.78;;;5.20;99.90;;;;;;6161092;23;20021;-75
2022/01/28 00:58:01;;;;;;;25.48;4.18;;;5.30;99.90;;;;;;6160144;23;20468;-75
2022/01/28 01:00:27;;;;;;;22.20;3.78;;;5.40;99.90;;;;;;6161249;23;20028;-74
2022/01/28 01:02:53;;;;;;;12.98;2.17;;;5.40;99.90;;;;;;6161093;23;20017;-74
2022/01/28 01:05:20;;;;;;;23.75;3.08;;;5.50;99.90;;;;;;6186455;23;20009;-76
2022/01/28 01:07:46;;;;;;;17.65;2.65;;;5.50;99.90;;;;;;6160978;23;20025;-74
2022/01/28 01:10:12;;;;;;;20.15;3.88;;;5.50;99.90;;;;;;6187307;23;20052;-75
2022/01/28 01:12:43;;;;;;;14.63;2.72;;;5.50;99.90;;;;;;6186514;23;20112;-75
2022/01/28 01:15:12;;;;;;;13.68;2.63;;;5.60;99.90;;;;;;6187704;23;20021;-75
2022/01/28 01:18:05;;;;;;;17.10;3.25;;;5.50;99.90;;;;;;6186363;23;20425;-75
2022/01/28 01:23:06;;;;;;;17.35;3.05;;;5.40;99.90;;;;;;6161036;23;20025;-75
2022/01/28 01:25:41;;;;;;;17.00;2.97;;;5.40;99.90;;;;;;6186315;23;20023;-75
2022/01/28 01:28:07;;;;;;;14.20;3.38;;;5.30;99.90;;;;;;6161056;23;20032;-75
2022/01/28 01:30:39;;;;;;;19.33;3.20;;;5.30;99.90;;;;;;6187620;23;20044;-75
2022/01/28 01:33:05;;;;;;;13.60;2.47;;;5.20;99.90;;;;;;6186709;23;20035;-74
2022/01/28 01:35:32;;;;;;;17.65;3.63;;;5.20;99.90;;;;;;6186712;23;20093;-75
2022/01/28 01:37:59;;;;;;;20.63;3.55;;;5.10;99.90;;;;;;6160211;23;20017;-74
2022/01/28 01:40:30;;;;;;;20.25;2.95;;;5.10;99.90;;;;;;6186438;23;20027;-74
2022/01/28 01:43:09;;;;;;;21.50;3.33;;;5.00;99.90;;;;;;6160784;23;20017;-75
2022/01/28 01:54:00;;;;;;;13.52;3.30;;;5.10;99.90;;;;;;6186443;23;20072;-75
2022/01/28 01:56:27;;;;;;;19.10;3.03;;;4.90;99.90;;;;;;6187164;23;20345;-75
2022/01/28 01:58:53;;;;;;;27.70;4.85;;;4.90;99.90;;;;;;6187371;23;20047;-75
2022/01/28 02:01:19;;;;;;;26.50;4.10;;;4.90;99.90;;;;;;6185846;23;20484;-74
2022/01/28 02:03:45;;;;;;;34.58;5.47;;;4.90;99.90;;;;;;6187559;23;20021;-75
2022/01/28 02:06:11;;;;;;;25.95;3.88;;;4.90;99.90;;;;;;6187098;23;20143;-75
2022/01/28 02:08:37;;;;;;;28.27;5.32;;;4.90;99.90;;;;;;6185925;23;20099;-74
2022/01/28 02:11:03;;;;;;;26.83;5.18;;;4.90;99.90;;;;;;6186586;23;20044;-74
2022/01/28 02:13:33;;;;;;;27.55;3.97;;;5.00;99.90;;;;;;6160618;23;20021;-74
2022/01/28 02:16:00;;;;;;;23.63;4.32;;;5.00;99.90;;;;;;6186923;23;20027;-75
2022/01/28 02:18:26;;;;;;;30.38;4.20;;;5.00;99.90;;;;;;6187014;23;20024;-74
2022/01/28 02:20:54;;;;;;;22.73;3.88;;;5.00;99.90;;;;;;6185954;23;20013;-75
2022/01/28 02:23:22;;;;;;;24.60;5.28;;;5.00;99.90;;;;;;6186821;23;20147;-74
2022/01/28 02:25:47;;;;;;;29.65;4.47;;;5.00;99.90;;;;;;6160355;23;20021;-74
2022/01/28 02:28:17;;;;;;;21.90;4.28;;;5.00;99.90;;;;;;6185726;23;20021;-74
2022/01/28 02:30:43;;;;;;;34.50;4.00;;;5.00;99.90;;;;;;6160272;23;20021;-75
2022/01/28 02:33:12;;;;;;;16.83;3.10;;;5.00;99.90;;;;;;6187115;23;20021;-75
2022/01/28 02:35:41;;;;;;;26.45;4.22;;;5.10;99.90;;;;;;6185478;23;20526;-75
2022/01/28 02:38:07;;;;;;;27.17;4.45;;;5.00;99.90;;;;;;6187041;23;20017;-75
2022/01/28 02:40:33;;;;;;;23.60;5.13;;;5.00;99.90;;;;;;6186868;23;20107;-75
2022/01/28 02:43:14;;;;;;;26.83;4.88;;;5.00;99.90;;;;;;6186084;23;20017;-75
2022/01/28 02:45:41;;;;;;;23.27;5.30;;;5.10;99.90;;;;;;6186370;23;20442;-75
2022/01/28 02:48:14;;;;;;;37.15;6.50;;;5.10;99.90;;;;;;6160234;23;20021;-75
2022/01/28 02:50:53;;;;;;;31.20;4.50;;;5.20;99.90;;;;;;6185436;23;20454;-74
2022/01/28 02:53:25;;;;;;;31.20;4.60;;;5.20;99.90;;;;;;6186798;23;20075;-75
2022/01/28 02:55:59;;;;;;;25.17;4.57;;;5.30;99.90;;;;;;6185429;23;20017;-75
2022/01/28 02:58:26;;;;;;;17.02;4.00;;;5.20;99.90;;;;;;6186845;23;20331;-75
2022/01/28 03:00:57;;;;;;;24.38;5.57;;;5.30;99.90;;;;;;6186819;23;20044;-75
2022/01/28 03:03:24;;;;;;;24.52;4.43;;;5.30;99.90;;;;;;6185681;23;20038;-75
2022/01/28 03:05:51;;;;;;;23.27;4.65;;;5.30;99.90;;;;;;6186698;23;20055;-75
2022/01/28 03:08:17;;;;;;;18.55;3.85;;;5.40;99.90;;;;;;6186359;23;20017;-75
2022/01/28 03:10:58;;;;;;;29.00;4.38;;;5.50;99.90;;;;;;6185202;23;20017;-75
2022/01/28 03:15:55;;;;;;;32.78;5.43;;;5.50;99.90;;;;;;6186216;23;20060;-75
2022/01/28 03:18:28;;;;;;;28.83;4.65;;;5.50;99.90;;;;;;6159104;23;20021;-75
2022/01/28 03:23:20;;;;;;;23.25;4.45;;;5.50;99.90;;;;;;6186370;23;20045;-75
2022/01/28 03:25:47;;;;;;;28.80;4.63;;;5.50;99.90;;;;;;6158965;23;20025;-74
2022/01/28 03:28:15;;;;;;;29.45;4.53;;;5.50;99.90;;;;;;6186433;23;20048;-74
2022/01/28 03:30:41;;;;;;;32.75;5.43;;;5.50;99.90;;;;;;6186210;23;20133;-75
2022/01/28 03:33:07;;;;;;;31.80;5.78;;;5.50;99.90;;;;;;6185180;23;20472;-75
2022/01/28 03:35:37;;;;;;;42.47;6.03;;;5.50;99.90;;;;;;6159273;23;20027;-75
2022/01/28 03:38:07;;;;;;;35.67;5.82;;;5.40;99.90;;;;;;6158700;23;20021;-75
2022/01/28 03:40:36;;;;;;;30.17;5.05;;;5.40;99.90;;;;;;6186361;23;20377;-75
2022/01/28 03:43:02;;;;;;;29.55;5.68;;;5.30;99.90;;;;;;6186115;23;20025;-75
2022/01/28 03:45:28;;;;;;;31.60;4.57;;;5.30;99.90;;;;;;6158672;23;20025;-75
2022/01/28 03:47:54;;;;;;;34.67;4.65;;;5.30;99.90;;;;;;6159528;23;20102;-75
2022/01/28 03:50:20;;;;;;;29.10;4.80;;;5.20;99.90;;;;;;6185814;23;20021;-76
2022/01/28 03:52:46;;;;;;;27.90;5.07;;;5.20;99.90;;;;;;6184912;23;20092;-75
2022/01/28 03:55:12;;;;;;;28.15;4.57;;;5.20;99.90;;;;;;6159565;23;20441;-75
2022/01/28 03:57:37;;;;;;;25.38;3.42;;;5.30;99.90;;;;;;6159606;23;20021;-75
2022/01/28 04:00:05;;;;;;;22.92;4.68;;;5.30;99.90;;;;;;6185075;23;20444;-75
2022/01/28 04:02:34;;;;;;;20.08;3.92;;;5.40;99.90;;;;;;6159456;23;20021;-75
2022/01/28 04:13:18;;;;;;;24.10;3.58;;;5.50;99.90;;;;;;6065200;23;20058;-75
2022/01/28 04:18:15;;;;;;;26.95;4.88;;;5.50;99.90;;;;;;6186101;23;20509;-75
2022/01/28 04:20:41;;;;;;;21.30;4.35;;;5.50;99.90;;;;;;6158219;23;20083;-75
2022/01/28 04:23:06;;;;;;;28.83;4.95;;;5.50;99.90;;;;;;6159422;23;20072;-75
2022/01/28 04:25:32;;;;;;;30.45;5.70;;;5.70;99.90;;;;;;6185751;23;20013;-75
2022/01/28 04:27:58;;;;;;;24.17;4.05;;;5.60;99.90;;;;;;6185270;23;20456;-75
2022/01/28 04:30:23;;;;;;;27.92;4.68;;;5.60;99.90;;;;;;6159376;23;20186;-75
2022/01/28 04:32:51;;;;;;;31.08;3.95;;;5.60;99.90;;;;;;6159656;23;20506;-75
2022/01/28 04:35:16;;;;;;;24.30;4.95;;;5.60;99.90;;;;;;6184658;23;20060;-75
2022/01/28 04:40:30;;;;;;;21.67;4.38;;;5.60;99.90;;;;;;6185786;23;20092;-75
2022/01/28 04:46:09;;;;;;;39.67;6.80;;;5.60;99.90;;;;;;6065815;23;20026;-75
2022/01/28 04:48:49;;;;;;;34.83;6.18;;;5.60;99.90;;;;;;6167752;23;20524;-75
2022/01/28 04:59:47;;;;;;;23.67;4.63;;;5.70;99.90;;;;;;6081656;23;20023;-75
2022/01/28 05:02:53;;;;;;;19.98;4.45;;;5.70;99.90;;;;;;6159498;23;20013;-75
2022/01/28 05:11:31;;;;;;;41.33;6.97;;;5.70;99.90;;;;;;6093672;23;20091;-75
2022/01/28 05:14:09;;;;;;;23.35;4.00;;;5.70;99.90;;;;;;6181313;23;20021;-75
2022/01/28 05:27:23;;;;;;;31.60;5.75;;;5.70;99.90;;;;;;6187176;23;20499;-75
2022/01/28 05:29:49;;;;;;;34.67;6.60;;;5.70;99.90;;;;;;6187576;23;20013;-75
2022/01/28 05:32:15;;;;;;;29.73;5.10;;;5.60;99.90;;;;;;6186183;23;20017;-75
2022/01/28 05:34:41;;;;;;;20.30;4.38;;;5.60;99.90;;;;;;6187102;23;20016;-75
2022/01/28 05:37:08;;;;;;;42.10;5.72;;;5.60;99.90;;;;;;6186975;23;20023;-75
2022/01/28 05:39:34;;;;;;;27.73;5.45;;;5.60;99.90;;;;;;6186262;23;20453;-75
2022/01/28 05:42:00;;;;;;;27.42;6.22;;;5.50;99.90;;;;;;6187508;23;20068;-75
2022/01/28 05:44:27;;;;;;;31.15;5.53;;;5.40;99.90;;;;;;6160653;23;20025;-74
2022/01/28 05:46:56;;;;;;;21.52;3.92;;;5.30;99.90;;;;;;6186656;23;20024;-75
2022/01/28 05:49:22;;;;;;;29.60;5.43;;;5.20;99.90;;;;;;6160600;23;20010;-75
2022/01/28 05:51:48;;;;;;;41.63;5.55;;;5.20;99.90;;;;;;6186018;23;20075;-75
2022/01/28 05:54:14;;;;;;;28.15;4.60;;;5.10;99.90;;;;;;6160653;23;20019;-75
2022/01/28 05:56:40;;;;;;;34.72;6.43;;;5.00;99.90;;;;;;6187112;23;20021;-75
2022/01/28 05:59:05;;;;;;;28.52;5.30;;;4.90;99.90;;;;;;6186067;23;20064;-75
2022/01/28 06:01:31;;;;;;;29.30;4.30;;;4.90;99.90;;;;;;6160231;23;20021;-75
2022/01/28 06:03:57;;;;;;;24.00;4.78;;;4.80;99.90;;;;;;6187263;23;20024;-75
2022/01/28 06:06:24;;;;;;;27.08;5.00;;;4.70;99.90;;;;;;6159422;23;20337;-74
2022/01/28 06:08:56;;;;;;;26.85;5.15;;;4.80;99.90;;;;;;6160543;23;20025;-74
2022/01/28 06:11:23;;;;;;;42.90;5.85;;;4.70;99.90;;;;;;6160298;23;20444;-74
2022/01/28 06:13:50;;;;;;;28.63;5.43;;;4.60;99.90;;;;;;6186222;23;20017;-74
2022/01/28 06:16:17;;;;;;;26.67;4.55;;;4.60;99.90;;;;;;6187031;23;20017;-75
2022/01/28 06:18:43;;;;;;;32.75;5.43;;;4.50;99.90;;;;;;6187241;23;20049;-75
2022/01/28 06:21:09;;;;;;;28.55;4.63;;;4.40;99.90;;;;;;6185826;23;20017;-74
2022/01/28 06:23:36;;;;;;;30.60;6.32;;;4.40;99.90;;;;;;6186537;23;20021;-75
2022/01/28 06:26:03;;;;;;;26.88;4.72;;;4.30;99.90;;;;;;6186723;23;20028;-74
2022/01/28 06:28:29;;;;;;;25.73;3.95;;;4.30;99.90;;;;;;6185868;23;20017;-75
2022/01/28 06:30:55;;;;;;;36.35;5.28;;;4.30;99.90;;;;;;6159939;23;20028;-75
2022/01/28 06:33:21;;;;;;;18.23;3.92;;;4.20;99.90;;;;;;6160337;23;20441;-74
2022/01/28 06:35:47;;;;;;;38.85;4.65;;;4.20;99.90;;;;;;6159172;23;20075;-74
2022/01/28 06:38:13;;;;;;;24.08;3.85;;;4.20;99.90;;;;;;6186778;23;20013;-74
2022/01/28 06:40:40;;;;;;;24.73;5.50;;;4.20;99.90;;;;;;6186588;23;20056;-74
2022/01/28 06:43:11;;;;;;;24.02;4.30;;;4.20;99.90;;;;;;6186074;23;20009;-74
2022/01/28 06:45:39;;;;;;;32.67;4.95;;;4.20;99.90;;;;;;6186915;23;20333;-74
2022/01/28 06:48:07;;;;;;;26.40;3.40;;;4.20;99.90;;;;;;6159266;23;20456;-74
2022/01/28 06:50:34;;;;;;;25.50;4.03;;;4.10;99.90;;;;;;6160040;23;20449;-74
2022/01/28 06:52:59;;;;;;;31.50;4.47;;;4.00;99.90;;;;;;6186925;23;20390;-74
2022/01/28 06:55:25;;;;;;;29.63;4.75;;;4.00;99.90;;;;;;6159056;23;20017;-74
2022/01/28 06:57:53;;;;;;;21.15;3.40;;;4.50;99.90;;;;;;6186317;23;20017;-74
2022/01/28 07:00:18;;;;;;;24.00;4.68;;;3.80;99.90;;;;;;6186881;23;20013;-74
2022/01/28 07:02:45;;;;;;;30.25;4.82;;;3.80;99.90;;;;;;6185633;23;20044;-74
2022/01/28 07:05:11;;;;;;;32.75;6.10;;;3.80;99.90;;;;;;6186532;23;20036;-74
2022/01/28 07:07:37;;;;;;;25.08;4.10;;;3.80;99.90;;;;;;6159880;23;20442;-74
2022/01/28 07:10:03;;;;;;;28.77;4.97;;;3.70;99.90;;;;;;6133945;23;20021;-75
2022/01/28 07:12:29;;;;;;;30.13;4.28;;;3.70;99.90;;;;;;6186601;23;20067;-74
2022/01/28 07:14:55;;;;;;;26.17;4.82;;;3.70;99.90;;;;;;6186071;23;20092;-74
2022/01/28 07:17:21;;;;;;;26.00;3.22;;;3.60;99.90;;;;;;6158799;23;20096;-74
2022/01/28 07:19:46;;;;;;;16.95;3.47;;;3.60;99.90;;;;;;6159779;23;20100;-74
2022/01/28 07:22:12;;;;;;;21.92;3.53;;;3.60;99.90;;;;;;6186498;23;20469;-74
2022/01/28 07:24:38;;;;;;;25.20;3.97;;;3.60;99.90;;;;;;6185021;23;20350;-74
2022/01/28 07:27:04;;;;;;;23.80;4.68;;;3.50;99.90;;;;;;6159777;23;20021;-74
2022/01/28 07:29:32;;;;;;;30.17;4.93;;;3.40;99.90;;;;;;6186401;23;20016;-73
2022/01/28 07:31:58;;;;;;;24.85;4.40;;;3.40;99.90;;;;;;6185543;23;20024;-73
2022/01/28 07:34:24;;;;;;;29.25;4.55;;;3.90;99.90;;;;;;6186370;23;20021;-74
2022/01/28 07:36:50;;;;;;;23.65;3.67;;;3.20;99.90;;;;;;6159708;23;20102;-74
2022/01/28 07:39:17;;;;;;;28.60;4.60;;;3.20;99.90;;;;;;6185310;23;20342;-74
2022/01/28 07:41:42;;;;;;;26.52;5.47;;;3.50;99.90;;;;;;6186312;23;20021;-74
2022/01/28 07:44:08;;;;;;;27.17;4.15;;;3.70;99.90;;;;;;6185134;23;20083;-73
2022/01/28 07:46:34;;;;;;;42.15;5.43;;;3.00;99.90;;;;;;6186386;23;20017;-73
2022/01/28 07:49:01;;;;;;;28.42;4.05;;;3.00;99.90;;;;;;6186212;23;20021;-74
2022/01/28 07:51:27;;;;;;;28.73;4.63;;;3.50;99.90;;;;;;6185376;23;20084;-74
2022/01/28 07:53:53;;;;;;;16.88;3.38;;;3.10;99.90;;;;;;6158997;23;20021;-74
2022/01/28 07:56:19;;;;;;;17.85;3.80;;;3.00;99.90;;;;;;6185868;23;20017;-74
2022/01/28 07:58:45;;;;;;;36.30;5.07;;;3.00;99.90;;;;;;6184766;23;20052;-74
2022/01/28 08:01:10;;;;;;;24.40;4.82;;;3.00;99.90;;;;;;6185887;23;20075;-74
2022/01/28 08:03:36;;;;;;;22.58;4.60;;;3.10;99.90;;;;;;6159506;23;20045;-74
2022/01/28 08:06:02;;;;;;;34.72;4.43;;;3.10;99.90;;;;;;6185090;23;20020;-74
2022/01/28 08:08:28;;;;;;;24.23;4.07;;;3.20;99.90;;;;;;6186181;23;20021;-75
2022/01/28 08:10:53;;;;;;;32.03;4.85;;;3.30;99.90;;;;;;6185625;23;20020;-74
2022/01/28 08:13:19;;;;;;;29.33;4.07;;;3.30;99.90;;;;;;6185177;23;20043;-75
2022/01/28 08:15:45;;;;;;;26.23;4.43;;;3.40;99.90;;;;;;6159229;23;20047;-74
2022/01/28 08:18:11;;;;;;;32.63;5.22;;;3.60;99.90;;;;;;6159476;23;20023;-75
2022/01/28 08:20:37;;;;;;;25.13;4.50;;;3.50;99.90;;;;;;6184588;23;20021;-74
2022/01/28 08:23:04;;;;;;;25.05;3.70;;;4.10;99.90;;;;;;6186079;23;20017;-75
2022/01/28 08:25:33;;;;;;;28.13;4.18;;;3.50;99.90;;;;;;6159431;23;20437;-75
2022/01/28 08:27:59;;;;;;;29.45;4.93;;;3.60;99.90;;;;;;6184348;23;20472;-74
2022/01/28 08:30:26;;;;;;;22.80;3.92;;;3.60;99.90;;;;;;6185783;23;20017;-74
2022/01/28 08:32:53;;;;;;;32.17;5.45;;;3.60;99.90;;;;;;6186006;23;20059;-75
2022/01/28 08:35:25;;;;;;;28.90;4.38;;;3.60;99.90;;;;;;6184966;23;20009;-75
2022/01/28 08:37:50;;;;;;;30.38;6.68;;;3.70;99.90;;;;;;6186180;23;20020;-75
2022/01/28 08:40:17;;;;;;;25.65;4.43;;;3.80;99.90;;;;;;6185759;23;20083;-75
2022/01/28 08:42:42;;;;;;;25.98;4.32;;;3.90;99.90;;;;;;6185138;23;20056;-75
2022/01/28 08:45:09;;;;;;;26.10;4.72;;;3.90;99.90;;;;;;6185968;23;20020;-74
2022/01/28 08:47:35;;;;;;;24.92;4.00;;;4.00;99.90;;;;;;6185879;23;20021;-75
2022/01/28 08:50:01;;;;;;;26.60;5.53;;;4.10;99.90;;;;;;6161255;23;20024;-75
2022/01/28 08:52:26;;;;;;;24.33;4.55;;;4.20;99.90;;;;;;6187541;23;20017;-75
2022/01/28 08:54:52;;;;;;;34.65;4.57;;;4.20;99.90;;;;;;6160551;23;20061;-75
2022/01/28 08:57:18;;;;;;;59.00;5.57;;;4.30;99.90;;;;;;6161270;23;20349;-75
2022/01/28 08:59:44;;;;;;;26.17;5.35;;;4.30;99.90;;;;;;6160982;23;20025;-75
2022/01/28 09:02:10;;;;;;;33.72;5.93;;;4.30;99.90;;;;;;6186766;23;20029;-75
2022/01/28 09:04:37;;;;;;;26.10;5.05;;;4.30;99.90;;;;;;6187497;23;20602;-75
2022/01/28 09:07:03;;;;;;;27.77;4.35;;;4.40;99.90;;;;;;6187837;23;20338;-74
2022/01/28 09:09:29;;;;;;;26.75;4.50;;;4.40;99.90;;;;;;6159903;23;20017;-74
2022/01/28 09:14:24;;;;;;;28.48;3.95;;;4.50;99.90;;;;;;6187825;23;20017;-75
2022/01/28 09:16:52;;;;;;;25.88;5.03;;;4.60;99.90;;;;;;6159918;23;20048;-75
2022/01/28 09:19:18;;;;;;;47.13;7.13;;;4.70;99.90;;;;;;6187660;23;20009;-75
2022/01/28 09:21:44;;;;;;;26.85;4.35;;;4.80;99.90;;;;;;6187647;23;20341;-75
2022/01/28 09:24:10;;;;;;;25.15;5.00;;;5.00;99.90;;;;;;6186676;23;20012;-75
2022/01/28 09:26:36;;;;;;;24.38;3.45;;;5.20;99.90;;;;;;6187553;23;20398;-75
2022/01/28 09:29:03;;;;;;;23.33;4.38;;;5.30;99.90;;;;;;6187337;23;20059;-75
2022/01/28 09:31:29;;;;;;;28.83;4.95;;;5.40;99.90;;;;;;6186398;23;20013;-75
2022/01/28 09:33:55;;;;;;;35.33;7.50;;;5.40;99.90;;;;;;6160848;23;20378;-75
2022/01/28 09:36:21;;;;;;;33.80;4.63;;;5.60;99.90;;;;;;6187326;23;20013;-75
2022/01/28 09:38:47;;;;;;;33.85;5.97;;;5.50;99.90;;;;;;6186194;23;20071;-75
2022/01/28 09:41:14;;;;;;;27.70;5.22;;;5.40;99.90;;;;;;6187586;23;20329;-75
2022/01/28 09:43:45;;;;;;;29.02;4.30;;;5.40;99.90;;;;;;6187212;23;20013;-75
2022/01/28 09:46:11;;;;;;;27.95;4.70;;;5.50;99.90;;;;;;6187613;23;20017;-75
2022/01/28 09:48:38;;;;;;;29.38;4.68;;;5.50;99.90;;;;;;6187050;23;20481;-75
2022/01/28 09:51:05;;;;;;;30.88;5.43;;;5.50;99.90;;;;;;6159680;23;20029;-75
2022/01/28 09:53:31;;;;;;;30.80;5.15;;;5.50;99.90;;;;;;6187091;23;20476;-75
2022/01/28 09:55:57;;;;;;;26.23;4.85;;;5.50;99.90;;;;;;6187044;23;20017;-75
2022/01/28 09:58:23;;;;;;;28.23;4.90;;;5.70;99.90;;;;;;6185830;23;20025;-75
2022/01/28 10:00:49;;;;;;;32.00;4.63;;;5.50;99.90;;;;;;6187050;23;20024;-74
2022/01/28 10:03:17;;;;;;;26.48;4.32;;;5.50;99.90;;;;;;6187119;23;20016;-75
2022/01/28 10:05:50;;;;;;;29.92;5.70;;;5.50;99.90;;;;;;6186381;23;20118;-74
2022/01/28 10:08:24;;;;;;;33.50;4.95;;;5.70;99.90;;;;;;6187383;23;20059;-75
2022/01/28 10:10:53;;;;;;;32.20;6.80;;;5.40;99.90;;;;;;6183493;23;20441;-75
2022/01/28 10:13:32;;;;;;;38.05;7.68;;;5.40;99.90;;;;;;6186594;23;20016;-75
2022/01/28 10:16:13;;;;;;;34.72;5.40;;;5.60;99.90;;;;;;6186294;23;20445;-75
2022/01/28 10:18:50;;;;;;;29.08;4.85;;;5.60;99.90;;;;;;6187125;23;20013;-75
2022/01/28 10:21:38;;;;;;;29.55;5.65;;;5.80;99.90;;;;;;6187055;23;20021;-75
2022/01/28 10:24:07;;;;;;;30.52;6.18;;;5.90;99.90;;;;;;6186676;23;20076;-75
2022/01/28 10:26:36;;;;;;;32.67;6.25;;;6.10;99.90;;;;;;6186238;23;20016;-75
2022/01/28 10:29:08;;;;;;;28.88;6.80;;;6.20;99.90;;;;;;6186936;23;20045;-75
2022/01/28 10:31:39;;;;;;;32.83;5.65;;;6.30;99.90;;;;;;6186865;23;20025;-75
2022/01/28 10:34:15;;;;;;;27.20;4.65;;;6.50;99.90;;;;;;6159570;23;20458;-75
2022/01/28 10:36:42;;;;;;;32.58;5.20;;;6.60;99.90;;;;;;6186356;23;20104;-75
2022/01/28 10:39:13;;;;;;;20.58;4.13;;;6.60;99.90;;;;;;6186652;23;20442;-75
2022/01/28 10:41:49;;;;;;;27.35;3.80;;;6.70;99.90;;;;;;6186180;23;20009;-75
2022/01/28 10:44:16;;;;;;;30.17;4.65;;;6.70;99.90;;;;;;6187047;23;20080;-75
2022/01/28 10:46:49;;;;;;;29.48;6.82;;;6.70;99.90;;;;;;6186618;23;20032;-75
2022/01/28 10:49:15;;;;;;;23.35;4.68;;;6.70;99.90;;;;;;6185667;23;20080;-75
2022/01/28 10:51:42;;;;;;;23.20;3.72;;;6.80;99.90;;;;;;6186317;23;20021;-75
2022/01/28 10:54:12;;;;;;;29.50;4.82;;;6.60;99.90;;;;;;6185531;23;20017;-75
2022/01/28 10:56:59;;;;;;;25.48;4.88;;;6.60;99.90;;;;;;6135857;23;20025;-75
2022/01/28 10:59:36;;;;;;;24.25;4.78;;;6.60;99.90;;;;;;6186671;23;20012;-75
2022/01/28 11:02:03;;;;;;;31.92;4.70;;;6.60;99.90;;;;;;6185934;23;20009;-75
2022/01/28 11:04:29;;;;;;;26.02;4.22;;;6.50;99.90;;;;;;6186470;23;20100;-75
2022/01/28 11:06:58;;;;;;;27.20;5.65;;;6.50;99.90;;;;;;6186136;23;20476;-75
2022/01/28 11:09:25;;;;;;;32.05;5.45;;;6.40;99.90;;;;;;6185439;23;20021;-75
2022/01/28 11:11:52;;;;;;;30.98;5.60;;;6.50;99.90;;;;;;6186316;23;20450;-75
2022/01/28 11:14:19;;;;;;;35.80;5.90;;;6.50;99.90;;;;;;6159970;23;20017;-75
2022/01/28 11:16:46;;;;;;;33.33;6.05;;;6.50;99.90;;;;;;6185291;23;20516;-75
2022/01/28 11:19:15;;;;;;;19.77;3.72;;;6.60;99.90;;;;;;6186623;23;20092;-75
2022/01/28 11:22:16;;;;;;;29.17;4.70;;;6.70;99.90;;;;;;6186566;23;20083;-75
2022/01/28 11:25:14;;;;;;;22.52;4.50;;;6.80;99.90;;;;;;6154058;23;20389;-75
2022/01/28 11:27:40;;;;;;;28.40;4.88;;;6.90;99.90;;;;;;6184941;23;20463;-75
2022/01/28 11:30:22;;;;;;;24.10;4.50;;;6.80;99.90;;;;;;6185661;23;20010;-75
2022/01/28 11:33:07;;;;;;;32.20;5.35;;;6.90;99.90;;;;;;6186592;23;20009;-75
2022/01/28 11:35:39;;;;;;;19.83;3.63;;;6.90;99.90;;;;;;6185935;23;20024;-74
2022/01/28 11:38:29;;;;;;;23.13;3.75;;;6.90;99.90;;;;;;6185284;23;20438;-75
2022/01/28 11:41:10;;;;;;;18.65;3.20;;;6.90;99.90;;;;;;6186543;23;20051;-75
2022/01/28 11:43:48;;;;;;;23.38;3.83;;;6.90;99.90;;;;;;6185446;23;20028;-75
2022/01/28 11:46:16;;;;;;;28.02;4.70;;;6.90;99.90;;;;;;6186129;23;20032;-75
2022/01/28 11:49:02;;;;;;;28.10;4.82;;;6.90;99.90;;;;;;6185945;23;20028;-75
2022/01/28 11:51:41;;;;;;;34.35;5.32;;;6.90;99.90;;;;;;6158678;23;20021;-75
2022/01/28 11:54:15;;;;;;;16.80;3.85;;;6.90;99.90;;;;;;6186076;23;20444;-75
2022/01/28 11:57:03;;;;;;;28.70;4.30;;;7.00;99.90;;;;;;6186307;23;20024;-75
2022/01/28 11:59:30;;;;;;;22.90;3.88;;;7.10;99.90;;;;;;6184777;23;20346;-75
2022/01/28 12:01:59;;;;;;;32.80;4.78;;;7.20;99.90;;;;;;6186368;23;20486;-75
2022/01/28 12:04:25;;;;;;;25.70;4.30;;;7.30;99.90;;;;;;6185328;23;20438;-75
2022/01/28 12:07:06;;;;;;;22.25;3.90;;;7.30;99.90;;;;;;6185875;23;20049;-75
2022/01/28 12:09:34;;;;;;;22.90;3.97;;;7.40;99.90;;;;;;6185683;23;20520;-75
2022/01/28 12:12:00;;;;;;;22.83;3.85;;;7.50;99.90;;;;;;6185253;23;20020;-75
2022/01/28 12:15:05;;;;;;;27.92;4.25;;;7.60;99.90;;;;;;6185802;23;20031;-75
2022/01/28 12:17:31;;;;;;;20.80;4.80;;;7.50;99.90;;;;;;6159636;23;20025;-75
2022/01/28 12:20:15;;;;;;;25.95;3.78;;;7.50;99.90;;;;;;6185344;23;20448;-75
2022/01/28 12:22:59;;;;;;;26.33;4.38;;;7.50;99.90;;;;;;6185507;23;20059;-75
2022/01/28 12:25:43;;;;;;;21.52;3.88;;;7.50;99.90;;;;;;6186163;23;20354;-75
2022/01/28 12:28:13;;;;;;;23.55;4.13;;;7.50;99.90;;;;;;6186181;23;20052;-75
2022/01/28 12:30:42;;;;;;;17.98;3.45;;;7.50;99.90;;;;;;6186002;23;20013;-75
2022/01/28 12:33:09;;;;;;;21.90;4.57;;;7.60;99.90;;;;;;6185276;23;20044;-75
2022/01/28 12:35:40;;;;;;;29.52;4.25;;;7.60;99.90;;;;;;6185864;23;20017;-74
2022/01/28 12:38:07;;;;;;;27.52;3.58;;;7.50;99.90;;;;;;6159488;23;20021;-74
2022/01/28 12:40:36;;;;;;;20.17;3.40;;;7.50;99.90;;;;;;6185242;23;20009;-75
2022/01/28 12:43:06;;;;;;;21.77;4.20;;;7.60;99.90;;;;;;6185743;23;20434;-74
2022/01/28 12:45:32;;;;;;;20.38;3.08;;;7.60;99.90;;;;;;6186144;23;20092;-74
2022/01/28 12:47:59;;;;;;;16.73;3.35;;;7.50;99.90;;;;;;6185034;23;20013;-75
2022/01/28 12:50:25;;;;;;;21.95;4.07;;;7.40;99.90;;;;;;6185629;23;20017;-75
2022/01/28 12:52:51;;;;;;;20.38;3.08;;;7.40;99.90;;;;;;6159283;23;20017;-75
2022/01/28 12:55:17;;;;;;;17.42;3.35;;;7.30;99.90;;;;;;6184581;23;20396;-74
2022/01/28 12:57:45;;;;;;;23.65;4.03;;;7.30;99.90;;;;;;6185756;23;20504;-74
2022/01/28 13:00:11;;;;;;;21.45;3.53;;;7.40;99.90;;;;;;6185986;23;20319;-75
2022/01/28 13:02:40;;;;;;;24.42;3.90;;;7.40;99.90;;;;;;6185064;23;20021;-74
2022/01/28 13:10:23;;;;;;;21.00;3.17;;;7.50;99.90;;;;;;6185606;23;20059;-75
2022/01/28 13:12:49;;;;;;;27.13;4.07;;;7.50;99.90;;;;;;6159355;23;20021;-75
2022/01/28 13:15:17;;;;;;;18.10;3.28;;;7.50;99.90;;;;;;6184468;23;20020;-74
2022/01/28 13:17:58;;;;;;;24.55;4.53;;;7.50;99.90;;;;;;6185535;23;20458;-75
2022/01/28 13:20:30;;;;;;;29.17;4.40;;;7.50;99.90;;;;;;6185407;23;20552;-74
2022/01/28 13:22:56;;;;;;;21.05;3.20;;;7.50;99.90;;;;;;6184992;23;20024;-75
2022/01/28 13:25:28;;;;;;;18.65;4.28;;;7.50;99.90;;;;;;6185467;23;20017;-75
2022/01/28 13:28:02;;;;;;;30.88;4.20;;;7.60;99.90;;;;;;6185913;23;20025;-74
2022/01/28 13:30:33;;;;;;;23.38;4.18;;;7.70;99.90;;;;;;6185005;23;20014;-75
2022/01/28 13:33:05;;;;;;;25.45;3.83;;;7.70;99.90;;;;;;6159816;23;20529;-75
2022/01/28 13:35:33;;;;;;;20.73;3.72;;;7.90;99.90;;;;;;6187489;23;20017;-75
2022/01/28 13:38:05;;;;;;;20.58;3.75;;;8.00;99.90;;;;;;6186634;23;20013;-75
2022/01/28 13:40:37;;;;;;;27.30;3.10;;;7.90;99.90;;;;;;6187391;23;20024;-75
2022/01/28 13:43:09;;;;;;;15.32;3.00;;;8.00;99.90;;;;;;6186728;23;20020;-75
2022/01/28 13:45:36;;;;;;;13.82;2.95;;;8.00;99.90;;;;;;6187548;23;20092;-75
2022/01/28 13:48:06;;;;;;;24.67;3.28;;;8.10;99.90;;;;;;6187143;23;20021;-75
2022/01/28 13:50:39;;;;;;;25.83;3.47;;;8.20;99.90;;;;;;6159971;23;20096;-75
2022/01/28 13:55:54;;;;;;;19.58;3.30;;;8.20;99.90;;;;;;6187460;23;20036;-75
2022/01/28 13:58:21;;;;;;;23.13;4.10;;;8.00;99.90;;;;;;6186418;23;20013;-75
2022/01/28 14:00:48;;;;;;;20.35;3.05;;;7.90;99.90;;;;;;6186955;23;20465;-75
2022/01/28 14:03:32;;;;;;;23.25;3.78;;;7.80;99.90;;;;;;6160746;23;20021;-75
2022/01/28 14:06:00;;;;;;;14.15;2.95;;;7.80;99.90;;;;;;6186090;23;20052;-75
2022/01/28 14:08:48;;;;;;;24.20;4.75;;;7.70;99.90;;;;;;6186943;23;20387;-75
2022/01/28 14:11:38;;;;;;;22.05;3.50;;;7.70;99.90;;;;;;6185760;23;20025;-75
2022/01/28 14:14:23;;;;;;;16.70;2.53;;;7.70;99.90;;;;;;6160626;23;20029;-75
2022/01/28 14:16:57;;;;;;;24.30;3.38;;;7.70;99.90;;;;;;6187177;23;20021;-74
2022/01/28 14:19:25;;;;;;;22.20;3.30;;;7.70;99.90;;;;;;6159743;23;20099;-75
2022/01/28 14:21:51;;;;;;;14.40;2.65;;;7.80;99.90;;;;;;6186682;23;20017;-75
2022/01/28 14:24:30;;;;;;;16.45;3.72;;;7.80;99.90;;;;;;6186881;23;20433;-75